NWS Home NWS Lubbock West Texas Mesonet Latest Conditions as of 1120 PM, Wed Aug 20, 2014

Latest   N   C   S   Daily Sum   3hrΔ   24hrΔ   Soil Data 
Site Map   24hr Precip   72hr Precip   Google Plot


Station Time of Last Temp Dew Pt. RH Wind Direction Wind Speed Wind Gust Max Wind Max Temp Min Temp Max RH Min RH Altimeter 1HR Rain Today's Rain Solar Rad
Abernathy 5ENE  11:15 PM 75 61 65% S1418 32 mph 186° @ 0955 PM 95 66 90 31 30.01" 0 0.00 0
Aiken 3WSW  11:16 PM 75 65 71% SE1520 30 mph 173° @ 0955 PM 93 67 88 35 30.01" 0 0.00 0
Amarillo 15NNW   11:15 PM 84 62 48% S2124 39 mph 191° @ 0523 PM 100 70 78 23 29.92" 0 0.00 0
Amarillo 7SSE  11:15 PM 81 63 55% S1317 36 mph 187° @ 0343 PM 97 67 90 27 29.98" 0 0.00 0
Amarillo 9NNE  11:15 PM 83 63 51% S2127 32 mph 197° @ 0514 PM 98 70 82 25 29.93" 0 0.00 0
Amherst 1NE  11:15 PM 74 63 72% S1421 36 mph 150° @ 1015 PM 93 66 89 32 30.01" 0 0.00 0
Andrews 2E  07:15 PM 87 60 41% S2127 31 mph 179° @ 0510 PM 95 71 73 27 29.91" 0 0.00 157
Anton 6SSW  11:15 PM 74 64 74% SE1620 36 mph 144° @ 0505 PM 95 68 85 31 29.99" 0 0.00 0
Aspermont 3NE  11:15 PM 85 60 44% S912 27 mph 191° @ 1215 PM 99 73 83 34 29.96" 0 0.00 0
Big Bend NP - Persimmon Gap  11:16 PM 78 65 65% NE67 33 mph 115° @ 0431 PM 94 74 74 34 30.01" 0 0.00 0
Big Lake 1WNW  11:15 PM 80 60 52% SE68 28 mph 168° @ 0925 AM 93 71 80 42 30.01" 0 0.00 0
Bootleg 11WNW  11:15 PM 75 61 63% S1316 32 mph 189° @ 0532 PM 96 63 88 23 30.02" 0 0.00 0
Brownfield 2S  11:15 PM 73 63 73% S1114 31 mph 159° @ 0910 PM 94 67 85 30 30.00" 0 0.00 0
Canadian 6E  11:15 PM 84 63 49% S1620 34 mph 161° @ 0308 PM 98 72 77 32 29.88" 0 0.00 0
Caprock Canyons State Park  11:15 PM 79 62 57% S1620 34 mph 189° @ 1022 PM 97 72 78 23 29.96" 0 0.00 0
Childress 2NNE  11:15 PM 88 61 42% S1928 35 mph 169° @ 1045 PM 100 72 76 26 29.91" 0 0.00 0
Clarendon 2WSW  11:15 PM 83 62 51% S2231 33 mph 183° @ 0440 PM 97 70 78 27 29.95" 0 0.00 0
Claude 12SW  11:15 PM 81 64 56% SE1115 31 mph 170° @ 0336 PM 96 71 77 31 29.99" 0 0.00 0
Coyanosa 2N  11:15 PM 81 64 55% S1720 35 mph 144° @ 0622 PM 100 77 67 24 29.95" 0 0.00 0
Denver City 7WNW  11:15 PM 77 60 58% S1621 33 mph 157° @ 0825 PM 94 64 88 20 30.00" 0 0.00 0
Dimmitt 2NE  11:15 PM 75 63 68% S2329 33 mph 165° @ 1110 PM 93 65 90 29 30.01" 0 0.00 0
Dora NM 2SW  11:15 PM 75 59 58% S1315 25 mph 175° @ 0240 PM 93 64 90 24 30.03" 0 0.02 0
Dozier 3W  11:15 PM 85 65 51% S1113 28 mph 159° @ 0431 PM 100 69 84 29 29.93" 0 0.00 0
Floydada 2NNE  11:15 PM 73 63 74% S1317 32 mph 171° @ 1000 PM 94 67 85 27 30.00" 0 0.00 0
Fluvanna 3WNW  11:15 PM 73 69 88% SE77 49 mph 228° @ 0905 PM 95 68 89 30 29.99" 0 0.71 0
Friona 2NE  11:15 PM 76 63 67% S2126 37 mph 174° @ 0505 PM 94 65 90 25 30.01" 0 0.06 0
Gail 2ESE  11:15 PM 73 69 87% SE56 46 mph 292° @ 0905 PM 95 67 93 34 29.97" 0 0.87 0
Goodlett 3W  11:15 PM 88 58 37% S1925 33 mph 162° @ 0445 PM 101 73 72 25 29.90" 0 0.00 0
Graham 5SSW  11:15 PM 70 64 86% S810 52 mph 201° @ 0725 PM 95 68 92 31 29.98" 0.01 0.88 0
Guadalupe Mtns Natl Park  11:15 PM 71 51 49% W78 34 mph 262° @ 1244 PM 83 64 75 30 30.13" 0 0.00 0
Guthrie 10WSW  11:15 PM 80 64 59% SW710 31 mph 179° @ 0330 PM 101 70 80 28 29.95" 0 0.00 0
Hart 3N  11:15 PM 75 63 70% S1524 30 mph 170° @ 1105 PM 91 64 94 32 30.00" 0 0.00 0
Haskell 1NW  11:15 PM 84 55 38% S79 30 mph 191° @ 0200 PM 98 76 74 28 29.94" 0 0.00 0
Hereford 2NW  11:15 PM 75 63 69% S1317 35 mph 204° @ 0605 PM 91 66 85 33 30.00" 0 0.00 0
Hobbs NM 5NW  11:15 PM 78 59 52% S1620 37 mph 225° @ 0505 PM 95 70 77 20 30.03" 0 0.00 0
Jayton 1SSE  11:15 PM 79 64 63% SE35 32 mph 245° @ 1010 PM 99 72 81 29 29.96" 0 0.00 0
Junction 1SSW  11:15 PM 80 66 62% SE56 33 mph 177° @ 0243 PM 93 72 87 31 29.99" 0 0.00 0
Knox City 3NW  11:15 PM 85 56 37% S1214 33 mph 184° @ 1235 PM 100 75 70 26 29.93" 0 0.00 0
Lake Alan Henry 1NW  11:15 PM 76 70 80% SW67 36 mph 236° @ 0942 PM 99 72 89 29 29.96" 0.07 0.09 0
Lamesa 2SE  11:15 PM 75 67 80% SE913 33 mph 167° @ 0815 PM 95 67 88 33 30.00" 0 0.10 0
Levelland 4S  11:15 PM 74 62 67% S1114 31 mph 141° @ 0940 PM 92 67 84 33 30.01" 0 0.00 0
Lomax 1SSE  11:15 PM 84 63 51% SE1317 33 mph 155° @ 0735 PM 96 71 81 35 29.98" 0 0.00 0
Lubbock 3WNW TTU  11:15 PM 76 61 62% SE1218 34 mph 164° @ 0950 PM 95 71 75 33 30.00" 0 0.00 0
McLean 1E  11:15 PM 83 62 49% S2130 36 mph 172° @ 0345 PM 94 68 88 32 29.93" 0 0.00 0
Memphis 1NE  11:15 PM 87 63 44% S1118 26 mph 141° @ 0345 PM 99 69 87 28 29.92" 0 0.00 0
Menard 2NW   11:15 PM 81 65 58% SE1014 23 mph 177° @ 0304 PM 92 72 90 33 30.00" 0 0.00 0
Mertzon 3NNE  11:16 PM 79 63 57% SE12 31 mph 182° @ 0936 AM 95 69 92 39 29.99" 0 0.00 0
Morton 1ENE  11:15 PM 77 63 65% SE1521 30 mph 147° @ 0955 PM 95 68 86 24 30.01" 0 0.00 0
Muleshoe 2SSW  11:15 PM 76 64 69% SE1724 44 mph 194° @ 0610 PM 95 67 87 25 30.00" 0 0.19 0
Northfield 1S  11:15 PM 79 66 65% S1621 38 mph 186° @ 1040 PM 100 72 77 26 29.93" 0 0.00 0
O'Donnell 1N  11:15 PM 72 66 84% SE912 33 mph 148° @ 0920 PM 94 68 88 29 30.00" 0.01 0.21 0
Odell 4ENE  11:15 PM 88 54 31% S1720 33 mph 162° @ 0244 PM 102 75 69 24 29.91" 0 0.00 0
Olton 6S  11:15 PM 73 63 72% S1620 36 mph 157° @ 1015 PM 93 67 85 28 30.00" 0 0.00 0
Paducah 10SW  11:15 PM 80 66 65% SW1624 31 mph 230° @ 1040 PM 97 67 88 30 29.94" 0 0.00 0
Palo Duro Canyon State Park  11:16 PM 82 63 53% S2227 30 mph 195° @ 0233 PM 97 70 79 28 29.99" 0 0.00 0
Pampa 2E  11:15 PM 81 61 52% S2127 34 mph 163° @ 0450 PM 95 66 94 32 29.95" 0 0.00 0
Plains 3N  11:15 PM 78 61 58% SE1216 32 mph 167° @ 0900 PM 96 67 83 22 30.01" 0 0.00 0
Plainview 1S  11:15 PM 75 65 71% S1524 31 mph 176° @ 1015 PM 94 68 88 30 30.00" 0 0.00 0
Post 1NE  11:15 PM 71 69 96% SE69 33 mph 238° @ 0810 PM 97 70 98 29 29.97" 0.01 0.37 0
Ralls 1SE  11:15 PM 71 64 82% SE810 39 mph 206° @ 0720 PM 94 68 84 32 30.02" 0 0.00 0
Reese Center  11:15 PM 74 62 67% S1417 35 mph 183° @ 0445 PM 95 69 79 28 30.00" 0 0.00 0
Roaring Springs 3N  09:30 PM 78 68 74% S2229 32 mph 184° @ 0925 PM 97 69 86 28 29.93" 0 0.00 0
San Angelo 7NW  11:15 PM 79 62 56% SE67 25 mph 163° @ 1025 AM 93 72 87 37 29.97" 0 0.00 0
Seagraves 1SW  11:15 PM 76 64 68% SE912 34 mph 173° @ 0825 PM 94 68 85 29 30.01" 0 0.00 0
Seminole 2NNE  11:15 PM 78 61 57% SE1216 33 mph 167° @ 0800 PM 97 68 82 22 30.00" 0 0.00 0
Seymour 3NW  11:15 PM 86 52 32% S911 30 mph 162° @ 0315 PM 101 76 68 24 29.92" 0 0.00 0
Silverton 7ESE  11:15 PM 76 62 64% S1927 40 mph 165° @ 1025 PM 96 69 80 28 29.99" 0 0.00 0
Slaton 2NE  11:15 PM 70 64 83% SE911 37 mph 172° @ 0620 PM 94 66 86 29 30.00" 0.01 0.29 0
Snyder 3E  11:15 PM 77 64 65% E34 30 mph 174° @ 1155 AM 96 72 83 32 29.98" 0 0.00 0
Spur 1W  11:15 PM 73 66 81% SW36 35 mph 273° @ 0930 PM 97 68 87 26 29.96" 0.01 0.05 0
St. Lawrence 5SW  11:15 PM 81 57 45% SE1418 30 mph 122° @ 0640 PM 94 69 79 31 29.99" 0 0.00 0
Sterling City 4WSW  11:16 PM 83 60 47% SE814 26 mph 157° @ 1131 AM 96 72 85 36 29.99" 0 0.00 0
Sundown 8WSW  11:15 PM 75 63 68% SE1520 29 mph 176° @ 0240 PM 96 66 87 28 30.01" 0 0.00 0
Sweetwater 11SW   11:15 PM 82 59 46% S1212 36 mph 177° @ 0119 PM 94 72 87 39 30.01" 0 0.00 0
Tahoka 3NNE  11:15 PM 71 65 88% SE811 38 mph 194° @ 0525 PM 96 67 88 34 29.99" 0.01 0.08 0
Tatum NM 2SW  11:15 PM 77 58 53% SE1622 35 mph 168° @ 1005 PM 94 67 81 20 30.02" 0 0.00 0
Tulia 2ENE  11:15 PM 78 64 63% S2028 37 mph 165° @ 0515 PM 95 66 92 30 29.99" 0 0.00 0
Turkey 2WSW  11:15 PM 79 66 67% S1216 34 mph 178° @ 1030 PM 98 69 86 27 29.94" 0 0.00 0
Umbarger 3NNE  11:15 PM 79 63 58% S2226 32 mph 187° @ 0232 PM 96 68 83 29 29.99" 0 0.00 0
Wall 1E  11:15 PM 73 65 76% SE67 24 mph 178° @ 1005 AM 92 71 89 44 29.97" 0 0.00 0
Weinert 2NNE  11:16 PM 83 59 43% S911 31 mph 183° @ 1212 PM 98 74 74 32 29.94" 0 0.00 0
White River Lake 6NW  11:15 PM 70 66 91% NE02 56 mph 186° @ 0825 PM 96 69 93 32 29.99" 0 0.96 0
Wolfforth 6SSW  11:15 PM 74 63 72% S1216 34 mph 157° @ 0940 PM 96 69 81 31 30.00" 0 0.11 0

West Texas Mesonet Home   Site Map/Menu  NWS Lubbock Soil Data  Daily Summary Page  24hr Precip  72hr Precip  Google Plot